createdAt,value
2022-08-05T00:00:29.404Z,18.63
2022-08-05T00:02:56.833Z,18.53
2022-08-05T00:06:02.888Z,18.53
2022-08-05T00:08:35.182Z,18.47
2022-08-05T00:11:01.380Z,18.43
2022-08-05T00:13:38.816Z,18.38
2022-08-05T00:16:09.276Z,18.36
2022-08-05T00:18:38.863Z,18.32
2022-08-05T00:21:08.503Z,18.28
2022-08-05T00:23:45.850Z,18.25
2022-08-05T00:26:22.132Z,18.09
2022-08-05T00:28:49.989Z,18.01
2022-08-05T00:31:41.521Z,18.05
2022-08-05T00:34:55.465Z,18.01
2022-08-05T00:37:11.981Z,17.99
2022-08-05T00:39:57.224Z,17.95
2022-08-05T00:42:32.992Z,17.91
2022-08-05T00:45:01.162Z,17.93
2022-08-05T00:47:53.228Z,17.92
2022-08-05T00:50:15.427Z,17.84
2022-08-05T00:52:45.494Z,17.76
2022-08-05T00:55:13.961Z,17.76
2022-08-05T00:57:58.531Z,17.72
2022-08-05T01:00:27.428Z,17.66
2022-08-05T01:02:55.399Z,17.70
2022-08-05T01:05:23.888Z,17.63
2022-08-05T01:08:39.169Z,17.70
2022-08-05T01:11:33.713Z,17.67
2022-08-05T01:14:27.748Z,17.53
2022-08-05T01:17:12.519Z,17.54
2022-08-05T01:20:02.306Z,17.56
2022-08-05T01:23:14.386Z,17.50
2022-08-05T01:26:20.464Z,17.49
2022-08-05T01:29:05.005Z,17.48
2022-08-05T01:31:44.589Z,17.44
2022-08-05T01:34:27.850Z,17.45
2022-08-05T01:37:00.744Z,17.47
2022-08-05T01:39:46.003Z,17.40
2022-08-05T01:42:19.701Z,17.42
2022-08-05T01:44:54.084Z,17.41
2022-08-05T01:47:23.217Z,17.39
2022-08-05T01:50:01.641Z,17.41
2022-08-05T01:52:34.904Z,17.37
2022-08-05T01:55:05.692Z,17.39
2022-08-05T01:58:12.870Z,17.36
2022-08-05T02:00:30.107Z,17.33
2022-08-05T02:03:06.931Z,17.23
2022-08-05T02:05:57.921Z,17.23
2022-08-05T02:08:30.968Z,17.25
2022-08-05T02:11:23.964Z,17.22
2022-08-05T02:14:12.905Z,17.21
2022-08-05T02:16:52.795Z,17.16
2022-08-05T02:19:29.011Z,17.07
2022-08-05T02:22:25.919Z,17.03
2022-08-05T02:25:02.778Z,17.02
2022-08-05T02:27:58.389Z,17.02
2022-08-05T02:30:21.598Z,17.03
2022-08-05T02:32:52.838Z,16.98
2022-08-05T02:35:27.922Z,16.94
2022-08-05T02:38:02.609Z,16.98
2022-08-05T02:40:30.790Z,16.96
2022-08-05T02:42:59.800Z,16.99
2022-08-05T02:45:52.294Z,16.93
2022-08-05T02:48:17.655Z,16.82
2022-08-05T02:50:48.576Z,16.84
2022-08-05T02:53:19.614Z,16.79
2022-08-05T02:55:59.590Z,16.81
2022-08-05T02:58:28.813Z,16.75
2022-08-05T03:01:01.881Z,16.71
2022-08-05T03:03:34.142Z,16.67
2022-08-05T03:06:54.539Z,16.59
2022-08-05T03:09:06.200Z,16.58
2022-08-05T03:11:54.738Z,16.66
2022-08-05T03:14:22.431Z,16.66
2022-08-05T03:16:49.424Z,16.64
2022-08-05T03:19:33.822Z,16.68
2022-08-05T03:22:04.908Z,16.70
2022-08-05T03:24:47.187Z,16.64
2022-08-05T03:27:19.064Z,16.63
2022-08-05T03:30:08.334Z,16.57
2022-08-05T03:32:33.601Z,16.59
2022-08-05T03:35:00.937Z,16.56
2022-08-05T03:37:28.325Z,16.58
2022-08-05T03:39:58.817Z,16.62
2022-08-05T03:42:29.214Z,16.62
2022-08-05T03:44:59.119Z,16.66
2022-08-05T03:47:30.576Z,16.71
2022-08-05T03:50:02.673Z,16.70
2022-08-05T03:52:48.462Z,16.72
2022-08-05T03:56:05.391Z,16.69
2022-08-05T03:58:31.550Z,16.74
2022-08-05T04:01:01.967Z,16.74
2022-08-05T04:03:38.117Z,16.77
2022-08-05T04:06:08.793Z,16.85
2022-08-05T04:08:37.106Z,16.93
2022-08-05T04:11:15.762Z,16.90
2022-08-05T04:13:51.106Z,17.02
2022-08-05T04:16:24.883Z,17.07
2022-08-05T04:18:54.448Z,17.18
2022-08-05T04:22:10.359Z,17.22
2022-08-05T04:24:18.936Z,17.27
2022-08-05T04:26:47.161Z,17.41
2022-08-05T04:29:14.277Z,17.66
2022-08-05T04:31:41.502Z,17.84
2022-08-05T04:34:31.573Z,18.12
2022-08-05T04:36:57.333Z,18.36
2022-08-05T04:39:27.359Z,18.55
2022-08-05T04:41:55.450Z,18.79
2022-08-05T04:44:29.021Z,19.06
2022-08-05T04:47:09.107Z,19.37
2022-08-05T04:50:02.906Z,19.67
2022-08-05T04:52:28.435Z,19.98
2022-08-05T04:54:56.940Z,20.29
2022-08-05T04:57:28.492Z,20.54
2022-08-05T04:59:58.443Z,20.80
2022-08-05T05:02:42.010Z,21.17
2022-08-05T05:05:25.860Z,21.46
2022-08-05T05:08:01.635Z,21.76
2022-08-05T05:10:33.323Z,22.02
2022-08-05T05:13:03.630Z,22.29
2022-08-05T05:15:59.384Z,22.55
2022-08-05T05:18:31.113Z,22.91
2022-08-05T05:21:02.199Z,23.28
2022-08-05T05:23:39.041Z,23.45
2022-08-05T05:26:19.054Z,23.71
2022-08-05T05:28:46.457Z,23.95
2022-08-05T05:31:13.755Z,24.26
2022-08-05T05:33:43.394Z,24.56
2022-08-05T05:36:28.569Z,24.82
2022-08-05T05:38:57.538Z,25.09
2022-08-05T05:41:24.841Z,25.34
2022-08-05T05:43:56.892Z,25.58
2022-08-05T05:46:25.811Z,25.77
2022-08-05T05:48:52.774Z,26.01
2022-08-05T05:51:24.388Z,26.25
2022-08-05T05:53:59.261Z,26.52
2022-08-05T05:56:34.373Z,26.79
2022-08-05T05:59:07.742Z,26.95
2022-08-05T06:01:38.883Z,27.10
2022-08-05T06:04:14.654Z,27.36
2022-08-05T06:06:47.291Z,27.58
2022-08-05T06:09:17.739Z,27.90
2022-08-05T06:12:01.958Z,28.11
2022-08-05T06:14:34.803Z,28.36
2022-08-05T06:17:21.647Z,28.42
2022-08-05T06:19:57.001Z,28.57
2022-08-05T06:22:29.115Z,28.55
2022-08-05T06:24:56.489Z,28.76
2022-08-05T06:28:10.412Z,28.93
2022-08-05T06:30:16.931Z,29.11
2022-08-05T06:32:47.266Z,29.34
2022-08-05T06:35:21.682Z,29.45
2022-08-05T06:38:08.318Z,29.63
2022-08-05T06:40:38.235Z,29.84
2022-08-05T06:43:58.694Z,30.13
2022-08-05T06:46:04.065Z,30.44
2022-08-05T06:48:50.113Z,30.43
2022-08-05T06:51:29.801Z,30.65
2022-08-05T06:54:03.428Z,31.03
2022-08-05T06:56:34.155Z,31.22
2022-08-05T06:59:08.402Z,31.26
2022-08-05T07:01:36.653Z,31.23
2022-08-05T07:04:04.051Z,31.37
2022-08-05T07:06:31.957Z,31.35
2022-08-05T07:09:03.757Z,31.25
2022-08-05T07:11:31.688Z,30.95
2022-08-05T07:14:29.261Z,30.77
2022-08-05T07:18:02.049Z,30.95
2022-08-05T07:22:38.196Z,31.36
2022-08-05T07:25:23.449Z,31.59
2022-08-05T07:27:58.772Z,31.52
2022-08-05T07:30:34.437Z,31.38
2022-08-05T07:33:05.366Z,31.68
2022-08-05T07:36:04.333Z,31.88
2022-08-05T07:38:33.803Z,31.91
2022-08-05T07:41:35.093Z,31.71
2022-08-05T07:43:59.274Z,31.91
2022-08-05T07:46:27.522Z,31.87
2022-08-05T07:49:02.943Z,32.08
2022-08-05T07:51:36.685Z,32.29
2022-08-05T07:54:06.306Z,32.37
2022-08-05T07:57:02.739Z,32.37
2022-08-05T07:59:37.996Z,32.67
2022-08-05T08:02:15.820Z,32.82
2022-08-05T08:04:45.978Z,32.56
2022-08-05T08:07:13.936Z,32.78
2022-08-05T08:09:42.169Z,32.81
2022-08-05T08:12:20.239Z,32.92
2022-08-05T08:14:56.385Z,33.07
2022-08-05T08:17:23.978Z,33.35
2022-08-05T08:20:21.107Z,33.23
2022-08-05T08:22:42.048Z,33.24
2022-08-05T08:25:16.137Z,33.37
2022-08-05T08:27:47.471Z,33.66
2022-08-05T08:30:32.868Z,33.54
2022-08-05T08:33:13.753Z,33.53
2022-08-05T08:35:53.950Z,33.40
2022-08-05T08:38:35.425Z,33.31
2022-08-05T08:41:08.658Z,33.28
2022-08-05T08:45:20.550Z,33.22
2022-08-05T08:46:27.664Z,33.25
2022-08-05T08:49:06.255Z,33.29
2022-08-05T08:52:02.955Z,33.35
2022-08-05T08:54:33.832Z,33.42
2022-08-05T08:57:11.246Z,33.73
2022-08-05T08:59:41.813Z,33.85
2022-08-05T09:02:16.570Z,33.93
2022-08-05T09:04:58.117Z,34.12
2022-08-05T09:07:39.710Z,34.13
2022-08-05T09:10:22.316Z,34.18
2022-08-05T09:12:55.931Z,34.36
2022-08-05T09:15:23.664Z,34.39
2022-08-05T09:17:52.925Z,34.36
2022-08-05T09:20:37.462Z,34.61
2022-08-05T09:23:21.492Z,34.85
2022-08-05T09:26:06.706Z,34.78
2022-08-05T09:28:41.491Z,34.60
2022-08-05T09:32:39.417Z,34.74
2022-08-05T09:34:07.661Z,33.82
2022-08-05T09:36:54.821Z,33.62
2022-08-05T09:39:39.306Z,33.68
2022-08-05T09:42:17.319Z,33.83
2022-08-05T09:44:56.079Z,33.27
2022-08-05T09:47:35.213Z,32.66
2022-08-05T09:50:18.193Z,31.94
2022-08-05T09:53:01.657Z,32.20
2022-08-05T09:55:58.488Z,32.35
2022-08-05T09:58:23.923Z,32.68
2022-08-05T10:01:14.738Z,33.18
2022-08-05T10:04:00.569Z,33.83
2022-08-05T10:06:31.281Z,34.19
2022-08-05T10:09:27.748Z,33.81
2022-08-05T10:12:30.643Z,33.44
2022-08-05T10:15:17.119Z,33.19
2022-08-05T10:17:54.526Z,32.82
2022-08-05T10:20:25.760Z,32.54
2022-08-05T10:22:53.440Z,32.51
2022-08-05T10:25:20.569Z,32.89
2022-08-05T10:28:13.129Z,33.33
2022-08-05T10:32:47.137Z,33.52
2022-08-05T10:33:28.775Z,33.54
2022-08-05T10:35:59.649Z,33.49
2022-08-05T10:38:33.090Z,33.63
2022-08-05T10:41:23.458Z,34.14
2022-08-05T10:43:56.960Z,34.59
2022-08-05T10:46:51.051Z,34.48
2022-08-05T10:49:27.618Z,34.62
2022-08-05T10:52:05.589Z,34.66
2022-08-05T10:54:58.243Z,34.84
2022-08-05T10:57:30.825Z,35.05
2022-08-05T11:00:18.549Z,35.48
2022-08-05T11:03:23.701Z,35.66
2022-08-05T11:06:15.734Z,34.66
2022-08-05T11:09:16.638Z,34.10
2022-08-05T11:11:53.180Z,34.27
2022-08-05T11:15:11.680Z,34.53
2022-08-05T11:17:57.055Z,34.63
2022-08-05T11:20:38.964Z,34.77
2022-08-05T11:23:33.351Z,35.03
2022-08-05T11:26:28.311Z,35.12
2022-08-05T11:28:56.816Z,34.77
2022-08-05T11:31:57.433Z,34.99
2022-08-05T11:34:18.053Z,35.51
2022-08-05T11:36:52.591Z,35.33
2022-08-05T11:40:00.195Z,35.28
2022-08-05T11:42:37.809Z,34.72
2022-08-05T11:45:14.369Z,34.18
2022-08-05T11:47:54.675Z,33.46
2022-08-05T11:50:22.142Z,33.08
2022-08-05T11:52:52.064Z,32.97
2022-08-05T11:55:21.688Z,33.31
2022-08-05T11:58:09.444Z,33.65
2022-08-05T12:00:41.239Z,33.97
2022-08-05T12:03:31.742Z,34.28
2022-08-05T12:06:02.255Z,34.00
2022-08-05T12:08:31.705Z,33.69
2022-08-05T12:11:05.629Z,33.93
2022-08-05T12:13:48.648Z,33.96
2022-08-05T12:16:19.573Z,33.89
2022-08-05T12:18:49.449Z,33.88
2022-08-05T12:21:29.868Z,33.87
2022-08-05T12:24:09.281Z,33.82
2022-08-05T12:26:44.150Z,33.66
2022-08-05T12:29:18.023Z,33.27
2022-08-05T12:31:55.629Z,33.33
2022-08-05T12:34:43.727Z,33.66
2022-08-05T12:37:17.330Z,33.94
2022-08-05T12:40:03.128Z,34.35
2022-08-05T12:42:31.598Z,34.70
2022-08-05T12:45:08.899Z,34.73
2022-08-05T12:47:37.860Z,34.87
2022-08-05T12:50:19.833Z,34.96
2022-08-05T12:53:00.162Z,34.37
2022-08-05T12:55:32.934Z,34.14
2022-08-05T12:58:38.553Z,33.80
2022-08-05T13:02:00.628Z,33.44
2022-08-05T13:03:42.109Z,32.98
2022-08-05T13:06:16.947Z,32.72
2022-08-05T13:08:52.283Z,32.77
2022-08-05T13:12:02.258Z,33.16
2022-08-05T13:14:24.909Z,33.52
2022-08-05T13:17:11.375Z,33.44
2022-08-05T13:19:52.433Z,33.53
2022-08-05T13:22:28.363Z,33.48
2022-08-05T13:24:58.212Z,33.67
2022-08-05T13:27:41.224Z,33.82
2022-08-05T13:30:34.220Z,34.10
2022-08-05T13:33:01.244Z,34.22
2022-08-05T13:35:43.204Z,34.54
2022-08-05T13:38:28.097Z,34.55
2022-08-05T13:40:59.335Z,34.72
2022-08-05T13:43:43.426Z,34.77
2022-08-05T13:46:14.105Z,34.68
2022-08-05T13:48:57.826Z,34.86
2022-08-05T13:51:36.557Z,35.20
2022-08-05T13:54:12.710Z,35.38
2022-08-05T13:56:45.548Z,35.10
2022-08-05T13:59:24.167Z,34.54
2022-08-05T14:01:58.586Z,34.03
2022-08-05T14:04:54.813Z,33.70
2022-08-05T14:08:00.611Z,33.33
2022-08-05T14:10:18.973Z,33.25
2022-08-05T14:12:55.953Z,33.34
2022-08-05T14:16:08.603Z,33.62
2022-08-05T14:18:17.350Z,33.89
2022-08-05T14:20:54.534Z,34.14
2022-08-05T14:23:25.573Z,34.30
2022-08-05T14:25:58.867Z,34.43
2022-08-05T14:28:29.820Z,34.47
2022-08-05T14:30:58.481Z,34.29
2022-08-05T14:33:25.721Z,34.06
2022-08-05T14:35:54.358Z,33.92
2022-08-05T14:38:33.212Z,33.95
2022-08-05T14:41:07.203Z,33.91
2022-08-05T14:44:02.083Z,33.91
2022-08-05T14:46:29.094Z,33.66
2022-08-05T14:49:06.745Z,33.69
2022-08-05T14:51:43.019Z,33.75
2022-08-05T14:54:28.599Z,33.77
2022-08-05T14:56:57.688Z,33.93
2022-08-05T14:59:25.424Z,33.96
2022-08-05T15:01:57.056Z,33.83
2022-08-05T15:04:27.387Z,33.85
2022-08-05T15:06:56.655Z,33.73
2022-08-05T15:09:51.555Z,33.55
2022-08-05T15:12:16.375Z,33.32
2022-08-05T15:14:54.709Z,33.09
2022-08-05T15:17:45.680Z,33.18
2022-08-05T15:20:18.991Z,33.20
2022-08-05T15:22:54.081Z,32.98
2022-08-05T15:25:23.461Z,32.89
2022-08-05T15:28:13.317Z,32.89
2022-08-05T15:30:43.632Z,33.00
2022-08-05T15:33:13.102Z,33.16
2022-08-05T15:36:00.254Z,33.26
2022-08-05T15:38:35.543Z,33.30
2022-08-05T15:41:20.730Z,33.14
2022-08-05T15:43:50.594Z,33.14
2022-08-05T15:46:20.174Z,33.19
2022-08-05T15:48:52.493Z,32.89
2022-08-05T15:52:12.646Z,32.57
2022-08-05T15:54:17.274Z,32.27
2022-08-05T15:56:44.353Z,32.08
2022-08-05T15:59:22.063Z,31.92
2022-08-05T16:01:52.698Z,31.61
2022-08-05T16:04:25.663Z,31.36
2022-08-05T16:06:55.758Z,31.23
2022-08-05T16:09:24.087Z,31.11
2022-08-05T16:11:53.148Z,30.99
2022-08-05T16:14:21.596Z,30.92
2022-08-05T16:16:50.008Z,30.93
2022-08-05T16:19:18.829Z,30.82
2022-08-05T16:22:01.195Z,30.71
2022-08-05T16:24:39.910Z,30.61
2022-08-05T16:27:09.674Z,30.54
2022-08-05T16:29:47.497Z,30.44
2022-08-05T16:32:28.715Z,30.25
2022-08-05T16:34:57.110Z,30.19
2022-08-05T16:38:15.047Z,30.10
2022-08-05T16:40:24.934Z,29.96
2022-08-05T16:42:53.695Z,29.83
2022-08-05T16:46:04.278Z,29.77
2022-08-05T16:48:07.749Z,29.70
2022-08-05T16:50:38.679Z,29.58
2022-08-05T16:53:12.031Z,29.51
2022-08-05T16:55:46.509Z,29.43
2022-08-05T16:58:14.542Z,29.31
2022-08-05T17:00:48.124Z,29.22
2022-08-05T17:03:20.245Z,29.13
2022-08-05T17:05:53.676Z,29.05
2022-08-05T17:08:33.621Z,28.90
2022-08-05T17:11:04.227Z,28.83
2022-08-05T17:13:37.428Z,28.65
2022-08-05T17:16:29.948Z,28.46
2022-08-05T17:18:55.789Z,28.34
2022-08-05T17:21:23.780Z,28.17
2022-08-05T17:24:04.616Z,27.98
2022-08-05T17:26:36.374Z,27.84
2022-08-05T17:29:07.429Z,27.74
2022-08-05T17:31:57.082Z,27.59
2022-08-05T17:34:29.704Z,27.44
2022-08-05T17:36:59.300Z,27.29
2022-08-05T17:39:33.574Z,27.19
2022-08-05T17:42:17.860Z,27.03
2022-08-05T17:44:50.230Z,26.83
2022-08-05T17:47:22.705Z,26.66
2022-08-05T17:50:04.205Z,26.55
2022-08-05T17:52:53.419Z,26.45
2022-08-05T17:55:34.490Z,26.18
2022-08-05T17:58:07.737Z,26.09
2022-08-05T18:00:40.896Z,26.00
2022-08-05T18:03:28.195Z,25.84
2022-08-05T18:06:04.969Z,25.75
2022-08-05T18:08:34.249Z,25.62
2022-08-05T18:11:03.277Z,25.56
2022-08-05T18:13:36.728Z,25.41
2022-08-05T18:16:13.427Z,25.32
2022-08-05T18:18:41.549Z,25.26
2022-08-05T18:21:19.511Z,25.19
2022-08-05T18:23:48.372Z,25.02
2022-08-05T18:26:18.687Z,24.91
2022-08-05T18:28:46.422Z,24.81
2022-08-05T18:31:15.746Z,24.66
2022-08-05T18:33:47.075Z,24.62
2022-08-05T18:36:17.183Z,24.58
2022-08-05T18:38:46.639Z,24.55
2022-08-05T18:41:56.503Z,24.47
2022-08-05T18:44:06.629Z,24.42
2022-08-05T18:46:35.242Z,24.30
2022-08-05T18:49:21.399Z,24.11
2022-08-05T18:52:08.831Z,23.93
2022-08-05T18:54:41.313Z,23.78
2022-08-05T18:57:14.978Z,23.73
2022-08-05T19:00:02.341Z,23.70
2022-08-05T19:02:29.898Z,23.57
2022-08-05T19:05:03.188Z,23.40
2022-08-05T19:07:48.232Z,23.35
2022-08-05T19:10:17.193Z,23.33
2022-08-05T19:12:46.093Z,23.27
2022-08-05T19:15:57.870Z,23.20
2022-08-05T19:18:09.385Z,23.16
2022-08-05T19:20:41.449Z,23.11
2022-08-05T19:24:04.520Z,23.08
2022-08-05T19:26:01.617Z,22.96
2022-08-05T19:28:33.950Z,22.87
2022-08-05T19:31:04.826Z,22.81
2022-08-05T19:33:36.372Z,22.72
2022-08-05T19:36:06.306Z,22.66
2022-08-05T19:38:35.777Z,22.56
2022-08-05T19:41:06.830Z,22.41
2022-08-05T19:44:06.629Z,22.42
2022-08-05T19:46:29.428Z,22.42
2022-08-05T19:48:56.908Z,22.35
2022-08-05T19:52:05.301Z,22.26
2022-08-05T19:54:25.429Z,22.21
2022-08-05T19:56:55.985Z,22.12
2022-08-05T19:59:54.711Z,22.12
2022-08-05T20:02:11.010Z,22.07
2022-08-05T20:04:38.101Z,22.03
2022-08-05T20:07:13.427Z,21.94
2022-08-05T20:09:53.741Z,21.84
2022-08-05T20:12:21.276Z,21.84
2022-08-05T20:14:52.392Z,21.79
2022-08-05T20:17:23.229Z,21.78
2022-08-05T20:19:56.977Z,21.77
2022-08-05T20:22:27.003Z,21.69
2022-08-05T20:24:55.851Z,21.58
2022-08-05T20:27:27.427Z,21.54
2022-08-05T20:30:28.108Z,21.51
2022-08-05T20:32:55.206Z,21.42
2022-08-05T20:35:22.581Z,21.45
2022-08-05T20:38:05.477Z,21.45
2022-08-05T20:40:35.778Z,21.40
2022-08-05T20:43:05.656Z,21.39
2022-08-05T20:45:56.168Z,21.20
2022-08-05T20:48:20.405Z,21.11
2022-08-05T20:50:47.657Z,21.11
2022-08-05T20:53:16.031Z,21.06
2022-08-05T20:56:08.708Z,20.98
2022-08-05T20:58:36.977Z,20.94
2022-08-05T21:01:04.529Z,20.86
2022-08-05T21:03:34.494Z,20.74
2022-08-05T21:06:02.137Z,20.73
2022-08-05T21:08:42.434Z,20.73
2022-08-05T21:11:12.874Z,20.74
2022-08-05T21:13:59.706Z,20.72
2022-08-05T21:16:29.713Z,20.69
2022-08-05T21:19:00.946Z,20.61
2022-08-05T21:21:43.689Z,20.60
2022-08-05T21:24:13.547Z,20.61
2022-08-05T21:26:47.179Z,20.67
2022-08-05T21:29:23.459Z,20.59
2022-08-05T21:31:56.516Z,20.56
2022-08-05T21:34:25.184Z,20.51
2022-08-05T21:36:55.605Z,20.42
2022-08-05T21:39:26.888Z,20.39
2022-08-05T21:42:01.887Z,20.34
2022-08-05T21:44:31.094Z,20.24
2022-08-05T21:46:59.936Z,20.28
2022-08-05T21:50:00.007Z,20.25
2022-08-05T21:52:22.105Z,20.18
2022-08-05T21:54:54.958Z,20.10
2022-08-05T21:57:31.611Z,20.09
2022-08-05T22:00:06.070Z,20.04
2022-08-05T22:02:34.927Z,20.01
2022-08-05T22:05:02.374Z,20.02
2022-08-05T22:07:39.889Z,20.01
2022-08-05T22:10:27.056Z,19.97
2022-08-05T22:12:57.280Z,19.91
2022-08-05T22:16:02.431Z,19.89
2022-08-05T22:18:13.364Z,19.82
2022-08-05T22:20:44.126Z,19.77
2022-08-05T22:24:02.476Z,19.73
2022-08-05T22:26:35.299Z,19.70
2022-08-05T22:29:06.372Z,19.66
2022-08-05T22:31:45.030Z,19.62
2022-08-05T22:34:25.462Z,19.61
2022-08-05T22:36:58.416Z,19.65
2022-08-05T22:39:32.527Z,19.61
2022-08-05T22:42:09.306Z,19.57
2022-08-05T22:44:39.115Z,19.49
2022-08-05T22:47:06.542Z,19.48
2022-08-05T22:50:19.326Z,19.50
2022-08-05T22:52:30.319Z,19.43
2022-08-05T22:55:01.516Z,19.31
2022-08-05T22:57:36.247Z,19.30
2022-08-05T23:00:07.868Z,19.32
2022-08-05T23:02:46.615Z,19.31
2022-08-05T23:05:18.557Z,19.22
2022-08-05T23:07:48.586Z,19.20
2022-08-05T23:10:19.679Z,19.22
2022-08-05T23:12:48.048Z,19.21
2022-08-05T23:15:19.023Z,19.20
2022-08-05T23:18:01.797Z,19.19
2022-08-05T23:20:32.115Z,19.24
2022-08-05T23:22:59.714Z,19.27
2022-08-05T23:25:51.725Z,19.28
2022-08-05T23:28:15.761Z,19.17
2022-08-05T23:30:53.470Z,19.13
2022-08-05T23:33:26.340Z,19.10
2022-08-05T23:36:10.588Z,19.07
2022-08-05T23:38:38.001Z,19.05
2022-08-05T23:41:05.140Z,19.04
2022-08-05T23:44:03.617Z,19.01
2022-08-05T23:46:21.989Z,18.91
2022-08-05T23:49:00.699Z,18.83
2022-08-05T23:51:55.446Z,18.83
2022-08-05T23:54:26.325Z,18.83
2022-08-05T23:57:03.994Z,18.75
